sensor_id;sensor_type;location;lat;lon;timestamp;temperature;humidity
24338;DHT22;12457;50.832;4.346;2023-04-08T00:00:21;9.30;99.90
24338;DHT22;12457;50.832;4.346;2023-04-08T00:02:47;9.20;99.90
24338;DHT22;12457;50.832;4.346;2023-04-08T00:05:13;9.10;99.90
24338;DHT22;12457;50.832;4.346;2023-04-08T00:07:38;9.00;99.90
24338;DHT22;12457;50.832;4.346;2023-04-08T00:10:05;9.10;99.90
24338;DHT22;12457;50.832;4.346;2023-04-08T00:12:31;9.10;99.90
24338;DHT22;12457;50.832;4.346;2023-04-08T00:14:57;9.20;99.90
24338;DHT22;12457;50.832;4.346;2023-04-08T00:17:23;9.20;99.90
24338;DHT22;12457;50.832;4.346;2023-04-08T00:19:49;9.20;99.90
24338;DHT22;12457;50.832;4.346;2023-04-08T00:22:15;9.10;99.90
24338;DHT22;12457;50.832;4.346;2023-04-08T00:24:40;9.10;99.90
24338;DHT22;12457;50.832;4.346;2023-04-08T00:27:06;9.10;99.90
24338;DHT22;12457;50.832;4.346;2023-04-08T00:29:32;9.00;99.90
24338;DHT22;12457;50.832;4.346;2023-04-08T00:31:57;9.10;99.90
24338;DHT22;12457;50.832;4.346;2023-04-08T00:34:23;9.10;99.90
24338;DHT22;12457;50.832;4.346;2023-04-08T00:36:49;9.10;99.90
24338;DHT22;12457;50.832;4.346;2023-04-08T00:39:14;9.00;99.90
24338;DHT22;12457;50.832;4.346;2023-04-08T00:41:56;8.90;99.90
24338;DHT22;12457;50.832;4.346;2023-04-08T00:44:22;8.80;99.90
24338;DHT22;12457;50.832;4.346;2023-04-08T00:46:47;8.90;99.90
24338;DHT22;12457;50.832;4.346;2023-04-08T00:49:13;8.90;99.90
24338;DHT22;12457;50.832;4.346;2023-04-08T00:51:39;8.80;99.90
24338;DHT22;12457;50.832;4.346;2023-04-08T00:54:06;8.90;99.90
24338;DHT22;12457;50.832;4.346;2023-04-08T00:56:32;8.90;99.90
24338;DHT22;12457;50.832;4.346;2023-04-08T00:59:02;8.80;99.90
24338;DHT22;12457;50.832;4.346;2023-04-08T01:04:08;9.00;99.90
24338;DHT22;12457;50.832;4.346;2023-04-08T01:06:43;9.00;99.90
24338;DHT22;12457;50.832;4.346;2023-04-08T01:09:12;9.00;99.90
24338;DHT22;12457;50.832;4.346;2023-04-08T01:11:44;9.10;99.90
24338;DHT22;12457;50.832;4.346;2023-04-08T01:14:16;9.10;99.90
24338;DHT22;12457;50.832;4.346;2023-04-08T01:16:45;9.20;99.90
24338;DHT22;12457;50.832;4.346;2023-04-08T01:19:21;9.30;99.90
24338;DHT22;12457;50.832;4.346;2023-04-08T01:21:49;9.30;99.90
24338;DHT22;12457;50.832;4.346;2023-04-08T01:24:32;9.20;99.90
24338;DHT22;12457;50.832;4.346;2023-04-08T01:27:01;9.10;99.90
24338;DHT22;12457;50.832;4.346;2023-04-08T01:29:28;9.10;99.90
24338;DHT22;12457;50.832;4.346;2023-04-08T01:31:56;9.10;99.90
24338;DHT22;12457;50.832;4.346;2023-04-08T01:34:25;9.20;99.90
24338;DHT22;12457;50.832;4.346;2023-04-08T01:36:52;9.10;99.90
24338;DHT22;12457;50.832;4.346;2023-04-08T01:39:19;9.20;99.90
24338;DHT22;12457;50.832;4.346;2023-04-08T01:41:55;9.20;99.90
24338;DHT22;12457;50.832;4.346;2023-04-08T01:44:22;9.20;99.90
24338;DHT22;12457;50.832;4.346;2023-04-08T01:46:50;9.10;99.90
24338;DHT22;12457;50.832;4.346;2023-04-08T01:49:17;9.10;99.90
24338;DHT22;12457;50.832;4.346;2023-04-08T01:51:44;9.10;99.90
24338;DHT22;12457;50.832;4.346;2023-04-08T01:54:10;9.10;99.90
24338;DHT22;12457;50.832;4.346;2023-04-08T01:56:40;9.10;99.90
24338;DHT22;12457;50.832;4.346;2023-04-08T01:59:09;9.00;99.90
24338;DHT22;12457;50.832;4.346;2023-04-08T02:01:36;9.00;99.90
24338;DHT22;12457;50.832;4.346;2023-04-08T02:04:03;9.00;99.90
24338;DHT22;12457;50.832;4.346;2023-04-08T02:06:29;9.00;99.90
24338;DHT22;12457;50.832;4.346;2023-04-08T02:08:56;9.00;99.90
24338;DHT22;12457;50.832;4.346;2023-04-08T02:11:23;9.10;99.90
24338;DHT22;12457;50.832;4.346;2023-04-08T02:13:50;9.20;99.90
24338;DHT22;12457;50.832;4.346;2023-04-08T02:19:34;8.90;99.90
24338;DHT22;12457;50.832;4.346;2023-04-08T02:22:06;8.80;99.90
24338;DHT22;12457;50.832;4.346;2023-04-08T02:24:35;8.70;99.90
24338;DHT22;12457;50.832;4.346;2023-04-08T02:27:04;8.70;99.90
24338;DHT22;12457;50.832;4.346;2023-04-08T02:29:31;8.70;99.90
24338;DHT22;12457;50.832;4.346;2023-04-08T02:31:57;8.70;99.90
24338;DHT22;12457;50.832;4.346;2023-04-08T02:34:24;8.60;99.90
24338;DHT22;12457;50.832;4.346;2023-04-08T02:36:52;8.70;99.90
24338;DHT22;12457;50.832;4.346;2023-04-08T02:39:18;8.80;99.90
24338;DHT22;12457;50.832;4.346;2023-04-08T02:41:46;8.80;99.90
24338;DHT22;12457;50.832;4.346;2023-04-08T02:44:12;8.70;99.90
24338;DHT22;12457;50.832;4.346;2023-04-08T02:46:41;8.60;99.90
24338;DHT22;12457;50.832;4.346;2023-04-08T02:49:08;8.60;99.90
24338;DHT22;12457;50.832;4.346;2023-04-08T02:51:34;8.70;99.90
24338;DHT22;12457;50.832;4.346;2023-04-08T02:54:00;8.60;99.90
24338;DHT22;12457;50.832;4.346;2023-04-08T02:56:41;8.70;99.90
24338;DHT22;12457;50.832;4.346;2023-04-08T02:59:07;8.70;99.90
24338;DHT22;12457;50.832;4.346;2023-04-08T03:01:33;8.90;99.90
24338;DHT22;12457;50.832;4.346;2023-04-08T03:04:00;8.90;99.90
24338;DHT22;12457;50.832;4.346;2023-04-08T03:06:25;8.80;99.90
24338;DHT22;12457;50.832;4.346;2023-04-08T03:08:51;8.80;99.90
24338;DHT22;12457;50.832;4.346;2023-04-08T03:11:20;8.90;99.90
24338;DHT22;12457;50.832;4.346;2023-04-08T03:13:46;9.00;99.90
24338;DHT22;12457;50.832;4.346;2023-04-08T03:16:11;9.00;99.90
24338;DHT22;12457;50.832;4.346;2023-04-08T03:18:38;8.90;99.90
24338;DHT22;12457;50.832;4.346;2023-04-08T03:21:04;8.70;99.90
24338;DHT22;12457;50.832;4.346;2023-04-08T03:23:30;8.70;99.90
24338;DHT22;12457;50.832;4.346;2023-04-08T03:26:05;8.70;99.90
24338;DHT22;12457;50.832;4.346;2023-04-08T03:28:31;8.70;99.90
24338;DHT22;12457;50.832;4.346;2023-04-08T03:30:57;8.80;99.90
24338;DHT22;12457;50.832;4.346;2023-04-08T03:33:22;8.80;99.90
24338;DHT22;12457;50.832;4.346;2023-04-08T03:35:48;8.80;99.90
24338;DHT22;12457;50.832;4.346;2023-04-08T03:38:14;8.70;99.90
24338;DHT22;12457;50.832;4.346;2023-04-08T03:40:40;8.70;99.90
24338;DHT22;12457;50.832;4.346;2023-04-08T03:43:12;8.70;99.90
24338;DHT22;12457;50.832;4.346;2023-04-08T03:45:38;8.70;99.90
24338;DHT22;12457;50.832;4.346;2023-04-08T03:48:04;8.70;99.90
24338;DHT22;12457;50.832;4.346;2023-04-08T03:50:29;8.80;99.90
24338;DHT22;12457;50.832;4.346;2023-04-08T03:52:55;8.80;99.90
24338;DHT22;12457;50.832;4.346;2023-04-08T03:55:24;8.90;99.90
24338;DHT22;12457;50.832;4.346;2023-04-08T03:57:50;8.90;99.90
24338;DHT22;12457;50.832;4.346;2023-04-08T04:00:16;9.00;99.90
24338;DHT22;12457;50.832;4.346;2023-04-08T04:02:43;8.90;99.90
24338;DHT22;12457;50.832;4.346;2023-04-08T04:05:09;8.90;99.90
24338;DHT22;12457;50.832;4.346;2023-04-08T04:07:35;8.80;99.90
24338;DHT22;12457;50.832;4.346;2023-04-08T04:10:01;8.80;99.90
24338;DHT22;12457;50.832;4.346;2023-04-08T04:12:29;8.80;99.90
24338;DHT22;12457;50.832;4.346;2023-04-08T04:14:55;8.80;99.90
24338;DHT22;12457;50.832;4.346;2023-04-08T04:17:21;8.80;99.90
24338;DHT22;12457;50.832;4.346;2023-04-08T04:19:46;8.80;99.90
24338;DHT22;12457;50.832;4.346;2023-04-08T04:22:12;8.90;99.90
24338;DHT22;12457;50.832;4.346;2023-04-08T04:24:38;9.00;99.90
24338;DHT22;12457;50.832;4.346;2023-04-08T04:27:03;8.90;99.90
24338;DHT22;12457;50.832;4.346;2023-04-08T04:29:30;8.90;99.90
24338;DHT22;12457;50.832;4.346;2023-04-08T04:31:56;9.00;99.90
24338;DHT22;12457;50.832;4.346;2023-04-08T04:34:22;9.00;99.90
24338;DHT22;12457;50.832;4.346;2023-04-08T04:36:47;8.90;99.90
24338;DHT22;12457;50.832;4.346;2023-04-08T04:39:13;8.90;99.90
24338;DHT22;12457;50.832;4.346;2023-04-08T04:41:39;8.80;99.90
24338;DHT22;12457;50.832;4.346;2023-04-08T04:44:05;8.70;99.90
24338;DHT22;12457;50.832;4.346;2023-04-08T04:46:31;8.60;99.90
24338;DHT22;12457;50.832;4.346;2023-04-08T04:48:57;8.60;99.90
24338;DHT22;12457;50.832;4.346;2023-04-08T04:51:23;8.90;99.90
24338;DHT22;12457;50.832;4.346;2023-04-08T04:53:48;9.00;99.90
24338;DHT22;12457;50.832;4.346;2023-04-08T04:56:14;8.80;99.90
24338;DHT22;12457;50.832;4.346;2023-04-08T04:58:40;8.70;99.90
24338;DHT22;12457;50.832;4.346;2023-04-08T05:01:06;8.70;99.90
24338;DHT22;12457;50.832;4.346;2023-04-08T05:03:32;8.70;99.90
24338;DHT22;12457;50.832;4.346;2023-04-08T05:05:57;8.70;99.90
24338;DHT22;12457;50.832;4.346;2023-04-08T05:08:23;8.70;99.90
24338;DHT22;12457;50.832;4.346;2023-04-08T05:10:49;8.70;99.90
24338;DHT22;12457;50.832;4.346;2023-04-08T05:13:18;8.70;99.90
24338;DHT22;12457;50.832;4.346;2023-04-08T05:15:43;8.60;99.90
24338;DHT22;12457;50.832;4.346;2023-04-08T05:18:12;8.60;99.90
24338;DHT22;12457;50.832;4.346;2023-04-08T05:20:38;8.60;99.90
24338;DHT22;12457;50.832;4.346;2023-04-08T05:23:04;8.60;99.90
24338;DHT22;12457;50.832;4.346;2023-04-08T05:25:29;8.70;99.90
24338;DHT22;12457;50.832;4.346;2023-04-08T05:27:56;8.70;99.90
24338;DHT22;12457;50.832;4.346;2023-04-08T05:30:22;8.60;99.90
24338;DHT22;12457;50.832;4.346;2023-04-08T05:32:48;8.70;99.90
24338;DHT22;12457;50.832;4.346;2023-04-08T05:35:14;8.80;99.90
24338;DHT22;12457;50.832;4.346;2023-04-08T05:37:39;8.80;99.90
24338;DHT22;12457;50.832;4.346;2023-04-08T05:40:05;8.90;99.90
24338;DHT22;12457;50.832;4.346;2023-04-08T05:42:31;8.80;99.90
24338;DHT22;12457;50.832;4.346;2023-04-08T05:44:59;8.70;99.90
24338;DHT22;12457;50.832;4.346;2023-04-08T05:47:25;8.70;99.90
24338;DHT22;12457;50.832;4.346;2023-04-08T05:49:51;8.70;99.90
24338;DHT22;12457;50.832;4.346;2023-04-08T05:52:18;8.90;99.90
24338;DHT22;12457;50.832;4.346;2023-04-08T05:54:44;9.10;99.90
24338;DHT22;12457;50.832;4.346;2023-04-08T05:57:10;9.20;99.90
24338;DHT22;12457;50.832;4.346;2023-04-08T05:59:36;9.20;99.90
24338;DHT22;12457;50.832;4.346;2023-04-08T06:02:02;9.30;99.90
24338;DHT22;12457;50.832;4.346;2023-04-08T06:04:27;9.20;99.90
24338;DHT22;12457;50.832;4.346;2023-04-08T06:06:53;9.30;99.90
24338;DHT22;12457;50.832;4.346;2023-04-08T06:09:19;9.20;99.90
24338;DHT22;12457;50.832;4.346;2023-04-08T06:11:44;9.20;99.90
24338;DHT22;12457;50.832;4.346;2023-04-08T06:14:11;9.20;99.90
24338;DHT22;12457;50.832;4.346;2023-04-08T06:16:37;9.10;99.90
24338;DHT22;12457;50.832;4.346;2023-04-08T06:19:04;9.10;99.90
24338;DHT22;12457;50.832;4.346;2023-04-08T06:21:30;9.00;99.90
24338;DHT22;12457;50.832;4.346;2023-04-08T06:23:56;8.90;99.90
24338;DHT22;12457;50.832;4.346;2023-04-08T06:26:22;9.10;99.90
24338;DHT22;12457;50.832;4.346;2023-04-08T06:29:06;9.20;99.90
24338;DHT22;12457;50.832;4.346;2023-04-08T06:31:32;9.20;99.90
24338;DHT22;12457;50.832;4.346;2023-04-08T06:33:58;9.20;99.90
24338;DHT22;12457;50.832;4.346;2023-04-08T06:36:23;9.20;99.90
24338;DHT22;12457;50.832;4.346;2023-04-08T06:38:51;9.30;99.90
24338;DHT22;12457;50.832;4.346;2023-04-08T06:41:16;9.30;99.90
24338;DHT22;12457;50.832;4.346;2023-04-08T06:43:42;9.30;99.90
24338;DHT22;12457;50.832;4.346;2023-04-08T06:46:09;9.40;99.90
24338;DHT22;12457;50.832;4.346;2023-04-08T06:48:35;9.50;99.90
24338;DHT22;12457;50.832;4.346;2023-04-08T06:51:02;9.70;99.90
24338;DHT22;12457;50.832;4.346;2023-04-08T06:53:28;9.80;99.90
24338;DHT22;12457;50.832;4.346;2023-04-08T06:55:58;9.80;99.90
24338;DHT22;12457;50.832;4.346;2023-04-08T06:58:24;9.70;99.90
24338;DHT22;12457;50.832;4.346;2023-04-08T07:00:50;9.70;99.90
24338;DHT22;12457;50.832;4.346;2023-04-08T07:03:18;9.70;99.90
24338;DHT22;12457;50.832;4.346;2023-04-08T07:05:43;9.80;99.90
24338;DHT22;12457;50.832;4.346;2023-04-08T07:08:09;9.80;99.90
24338;DHT22;12457;50.832;4.346;2023-04-08T07:10:35;9.70;99.90
24338;DHT22;12457;50.832;4.346;2023-04-08T07:13:02;9.70;99.90
24338;DHT22;12457;50.832;4.346;2023-04-08T07:15:27;9.80;99.90
24338;DHT22;12457;50.832;4.346;2023-04-08T07:17:53;10.00;99.90
24338;DHT22;12457;50.832;4.346;2023-04-08T07:20:21;10.50;99.90
24338;DHT22;12457;50.832;4.346;2023-04-08T07:22:48;10.80;99.90
24338;DHT22;12457;50.832;4.346;2023-04-08T07:25:13;10.70;99.90
24338;DHT22;12457;50.832;4.346;2023-04-08T07:27:39;10.80;99.90
24338;DHT22;12457;50.832;4.346;2023-04-08T07:30:06;10.70;99.90
24338;DHT22;12457;50.832;4.346;2023-04-08T07:32:32;10.80;99.90
24338;DHT22;12457;50.832;4.346;2023-04-08T07:34:59;10.90;99.90
24338;DHT22;12457;50.832;4.346;2023-04-08T07:37:25;10.80;99.90
24338;DHT22;12457;50.832;4.346;2023-04-08T07:39:51;10.80;99.90
24338;DHT22;12457;50.832;4.346;2023-04-08T07:42:17;10.80;99.90
24338;DHT22;12457;50.832;4.346;2023-04-08T07:44:44;11.10;99.90
24338;DHT22;12457;50.832;4.346;2023-04-08T07:47:10;11.50;99.90
24338;DHT22;12457;50.832;4.346;2023-04-08T07:49:37;11.60;99.90
24338;DHT22;12457;50.832;4.346;2023-04-08T07:52:03;11.70;99.90
24338;DHT22;12457;50.832;4.346;2023-04-08T07:54:32;11.60;99.90
24338;DHT22;12457;50.832;4.346;2023-04-08T07:57:00;11.70;99.90
24338;DHT22;12457;50.832;4.346;2023-04-08T07:59:27;11.60;99.90
24338;DHT22;12457;50.832;4.346;2023-04-08T08:01:53;11.70;99.90
24338;DHT22;12457;50.832;4.346;2023-04-08T08:04:19;11.70;99.90
24338;DHT22;12457;50.832;4.346;2023-04-08T08:06:46;11.50;99.90
24338;DHT22;12457;50.832;4.346;2023-04-08T08:09:12;11.50;99.90
24338;DHT22;12457;50.832;4.346;2023-04-08T08:11:38;11.40;99.90
24338;DHT22;12457;50.832;4.346;2023-04-08T08:14:04;11.40;99.90
24338;DHT22;12457;50.832;4.346;2023-04-08T08:16:30;11.40;99.90
24338;DHT22;12457;50.832;4.346;2023-04-08T08:18:57;11.60;99.90
24338;DHT22;12457;50.832;4.346;2023-04-08T08:21:23;11.60;99.90
24338;DHT22;12457;50.832;4.346;2023-04-08T08:23:51;11.50;99.90
24338;DHT22;12457;50.832;4.346;2023-04-08T08:26:17;11.50;99.90
24338;DHT22;12457;50.832;4.346;2023-04-08T08:28:42;11.60;99.90
24338;DHT22;12457;50.832;4.346;2023-04-08T08:31:08;11.70;99.90
24338;DHT22;12457;50.832;4.346;2023-04-08T08:33:34;11.70;99.90
24338;DHT22;12457;50.832;4.346;2023-04-08T08:36:00;11.60;99.90
24338;DHT22;12457;50.832;4.346;2023-04-08T08:38:27;11.50;99.90
24338;DHT22;12457;50.832;4.346;2023-04-08T08:40:54;11.70;99.90
24338;DHT22;12457;50.832;4.346;2023-04-08T08:43:21;11.80;99.90
24338;DHT22;12457;50.832;4.346;2023-04-08T08:45:47;11.80;99.90
24338;DHT22;12457;50.832;4.346;2023-04-08T08:48:12;11.70;99.90
24338;DHT22;12457;50.832;4.346;2023-04-08T08:50:39;11.50;99.90
24338;DHT22;12457;50.832;4.346;2023-04-08T08:53:04;11.40;99.90
24338;DHT22;12457;50.832;4.346;2023-04-08T08:55:31;11.40;99.90
24338;DHT22;12457;50.832;4.346;2023-04-08T08:58:01;11.40;99.90
24338;DHT22;12457;50.832;4.346;2023-04-08T09:00:46;11.40;99.90
24338;DHT22;12457;50.832;4.346;2023-04-08T09:03:22;11.30;99.90
24338;DHT22;12457;50.832;4.346;2023-04-08T09:05:56;11.40;99.90
24338;DHT22;12457;50.832;4.346;2023-04-08T09:08:33;11.50;99.90
24338;DHT22;12457;50.832;4.346;2023-04-08T09:11:12;11.60;99.90
24338;DHT22;12457;50.832;4.346;2023-04-08T09:13:39;11.80;99.90
24338;DHT22;12457;50.832;4.346;2023-04-08T09:16:08;11.80;99.90
24338;DHT22;12457;50.832;4.346;2023-04-08T09:18:38;12.00;99.90
24338;DHT22;12457;50.832;4.346;2023-04-08T09:21:06;12.10;99.90
24338;DHT22;12457;50.832;4.346;2023-04-08T09:26:15;12.20;99.90
24338;DHT22;12457;50.832;4.346;2023-04-08T09:28:43;12.30;99.90
24338;DHT22;12457;50.832;4.346;2023-04-08T09:31:23;12.20;99.90
24338;DHT22;12457;50.832;4.346;2023-04-08T09:33:50;12.20;99.90
24338;DHT22;12457;50.832;4.346;2023-04-08T09:36:16;12.10;99.90
24338;DHT22;12457;50.832;4.346;2023-04-08T09:38:43;12.00;99.90
24338;DHT22;12457;50.832;4.346;2023-04-08T09:41:14;12.00;99.90
24338;DHT22;12457;50.832;4.346;2023-04-08T09:43:50;11.60;99.90
24338;DHT22;12457;50.832;4.346;2023-04-08T09:52:10;11.80;99.90
24338;DHT22;12457;50.832;4.346;2023-04-08T09:54:54;11.80;99.90
24338;DHT22;12457;50.832;4.346;2023-04-08T09:57:39;11.70;99.90
24338;DHT22;12457;50.832;4.346;2023-04-08T10:00:18;12.00;99.90
24338;DHT22;12457;50.832;4.346;2023-04-08T10:05:30;12.20;99.90
24338;DHT22;12457;50.832;4.346;2023-04-08T10:07:57;12.50;99.90
24338;DHT22;12457;50.832;4.346;2023-04-08T10:10:23;12.50;99.90
24338;DHT22;12457;50.832;4.346;2023-04-08T10:12:51;12.60;99.90
24338;DHT22;12457;50.832;4.346;2023-04-08T10:15:30;12.70;99.90
24338;DHT22;12457;50.832;4.346;2023-04-08T10:20:49;12.60;99.90
24338;DHT22;12457;50.832;4.346;2023-04-08T10:23:17;12.70;99.90
24338;DHT22;12457;50.832;4.346;2023-04-08T10:25:46;12.70;99.90
24338;DHT22;12457;50.832;4.346;2023-04-08T10:30:45;13.20;99.90
24338;DHT22;12457;50.832;4.346;2023-04-08T10:35:54;13.00;99.90
24338;DHT22;12457;50.832;4.346;2023-04-08T10:38:20;13.20;99.90
24338;DHT22;12457;50.832;4.346;2023-04-08T10:40:48;13.20;99.90
24338;DHT22;12457;50.832;4.346;2023-04-08T10:43:14;13.30;99.90
24338;DHT22;12457;50.832;4.346;2023-04-08T10:45:45;13.60;99.90
24338;DHT22;12457;50.832;4.346;2023-04-08T10:48:21;13.80;99.90
24338;DHT22;12457;50.832;4.346;2023-04-08T10:51:00;14.00;99.90
24338;DHT22;12457;50.832;4.346;2023-04-08T10:53:38;13.80;99.90
24338;DHT22;12457;50.832;4.346;2023-04-08T10:56:14;13.70;99.90
24338;DHT22;12457;50.832;4.346;2023-04-08T11:01:17;13.70;99.90
24338;DHT22;12457;50.832;4.346;2023-04-08T11:03:45;13.50;99.90
24338;DHT22;12457;50.832;4.346;2023-04-08T11:06:11;13.30;99.90
24338;DHT22;12457;50.832;4.346;2023-04-08T11:08:37;13.10;99.90
24338;DHT22;12457;50.832;4.346;2023-04-08T11:11:04;13.30;99.90
24338;DHT22;12457;50.832;4.346;2023-04-08T11:13:38;13.10;99.90
24338;DHT22;12457;50.832;4.346;2023-04-08T11:16:06;13.10;99.90
24338;DHT22;12457;50.832;4.346;2023-04-08T11:18:39;13.20;99.90
24338;DHT22;12457;50.832;4.346;2023-04-08T11:21:12;13.30;99.90
24338;DHT22;12457;50.832;4.346;2023-04-08T11:23:37;13.30;99.90
24338;DHT22;12457;50.832;4.346;2023-04-08T11:26:03;13.30;99.90
24338;DHT22;12457;50.832;4.346;2023-04-08T11:28:30;13.50;99.90
24338;DHT22;12457;50.832;4.346;2023-04-08T11:30:57;13.40;99.90
24338;DHT22;12457;50.832;4.346;2023-04-08T11:33:24;13.30;99.90
24338;DHT22;12457;50.832;4.346;2023-04-08T11:35:51;13.20;99.90
24338;DHT22;12457;50.832;4.346;2023-04-08T11:38:22;13.20;99.90
24338;DHT22;12457;50.832;4.346;2023-04-08T11:40:55;13.20;99.90
24338;DHT22;12457;50.832;4.346;2023-04-08T11:43:23;13.20;99.90
24338;DHT22;12457;50.832;4.346;2023-04-08T11:45:48;13.30;99.90
24338;DHT22;12457;50.832;4.346;2023-04-08T11:48:15;13.50;99.90
24338;DHT22;12457;50.832;4.346;2023-04-08T11:50:42;13.70;99.90
24338;DHT22;12457;50.832;4.346;2023-04-08T11:53:18;13.80;99.90
24338;DHT22;12457;50.832;4.346;2023-04-08T11:55:44;14.00;99.90
24338;DHT22;12457;50.832;4.346;2023-04-08T11:58:10;14.10;99.90
24338;DHT22;12457;50.832;4.346;2023-04-08T12:00:36;13.90;99.90
24338;DHT22;12457;50.832;4.346;2023-04-08T12:03:03;13.70;99.90
24338;DHT22;12457;50.832;4.346;2023-04-08T12:05:28;13.50;99.90
24338;DHT22;12457;50.832;4.346;2023-04-08T12:07:55;13.50;99.90
24338;DHT22;12457;50.832;4.346;2023-04-08T12:10:21;13.60;99.90
24338;DHT22;12457;50.832;4.346;2023-04-08T12:12:46;13.60;99.90
24338;DHT22;12457;50.832;4.346;2023-04-08T12:15:16;13.70;99.90
24338;DHT22;12457;50.832;4.346;2023-04-08T12:17:42;13.70;99.90
24338;DHT22;12457;50.832;4.346;2023-04-08T12:20:11;13.80;99.90
24338;DHT22;12457;50.832;4.346;2023-04-08T12:22:37;13.90;99.90
24338;DHT22;12457;50.832;4.346;2023-04-08T12:25:03;13.80;99.90
24338;DHT22;12457;50.832;4.346;2023-04-08T12:27:32;13.70;99.90
24338;DHT22;12457;50.832;4.346;2023-04-08T12:29:58;13.80;99.90
24338;DHT22;12457;50.832;4.346;2023-04-08T12:32:25;14.00;99.90
24338;DHT22;12457;50.832;4.346;2023-04-08T12:34:51;14.30;99.90
24338;DHT22;12457;50.832;4.346;2023-04-08T12:37:18;14.50;99.90
24338;DHT22;12457;50.832;4.346;2023-04-08T12:39:45;14.40;99.90
24338;DHT22;12457;50.832;4.346;2023-04-08T12:42:12;14.20;99.90
24338;DHT22;12457;50.832;4.346;2023-04-08T12:44:38;14.20;99.90
24338;DHT22;12457;50.832;4.346;2023-04-08T12:47:03;14.10;99.90
24338;DHT22;12457;50.832;4.346;2023-04-08T12:49:29;14.30;99.90
24338;DHT22;12457;50.832;4.346;2023-04-08T12:51:55;14.70;99.90
24338;DHT22;12457;50.832;4.346;2023-04-08T12:54:21;15.00;99.90
24338;DHT22;12457;50.832;4.346;2023-04-08T12:56:48;14.80;99.90
24338;DHT22;12457;50.832;4.346;2023-04-08T12:59:14;14.70;99.90
24338;DHT22;12457;50.832;4.346;2023-04-08T13:01:56;15.00;99.90
24338;DHT22;12457;50.832;4.346;2023-04-08T13:04:21;15.00;99.90
24338;DHT22;12457;50.832;4.346;2023-04-08T13:06:47;15.00;99.90
24338;DHT22;12457;50.832;4.346;2023-04-08T13:09:13;15.10;99.90
24338;DHT22;12457;50.832;4.346;2023-04-08T13:11:39;15.10;99.90
24338;DHT22;12457;50.832;4.346;2023-04-08T13:14:05;15.20;99.90
24338;DHT22;12457;50.832;4.346;2023-04-08T13:16:31;15.60;99.90
24338;DHT22;12457;50.832;4.346;2023-04-08T13:18:56;15.70;99.90
24338;DHT22;12457;50.832;4.346;2023-04-08T13:21:22;15.60;99.90
24338;DHT22;12457;50.832;4.346;2023-04-08T13:23:48;15.40;99.90
24338;DHT22;12457;50.832;4.346;2023-04-08T13:26:14;15.80;99.90
24338;DHT22;12457;50.832;4.346;2023-04-08T13:28:40;16.20;99.90
24338;DHT22;12457;50.832;4.346;2023-04-08T13:31:05;16.10;99.90
24338;DHT22;12457;50.832;4.346;2023-04-08T13:33:31;15.90;99.90
24338;DHT22;12457;50.832;4.346;2023-04-08T13:35:57;15.70;99.90
24338;DHT22;12457;50.832;4.346;2023-04-08T13:38:22;15.80;99.90
24338;DHT22;12457;50.832;4.346;2023-04-08T13:40:50;15.90;99.90
24338;DHT22;12457;50.832;4.346;2023-04-08T13:43:15;15.90;99.90
24338;DHT22;12457;50.832;4.346;2023-04-08T13:45:41;15.90;99.90
24338;DHT22;12457;50.832;4.346;2023-04-08T13:48:09;15.70;99.90
24338;DHT22;12457;50.832;4.346;2023-04-08T13:50:36;15.80;99.90
24338;DHT22;12457;50.832;4.346;2023-04-08T13:53:03;15.50;99.90
24338;DHT22;12457;50.832;4.346;2023-04-08T13:55:29;15.20;99.90
24338;DHT22;12457;50.832;4.346;2023-04-08T13:57:54;14.90;99.90
24338;DHT22;12457;50.832;4.346;2023-04-08T14:00:20;15.10;99.90
24338;DHT22;12457;50.832;4.346;2023-04-08T14:02:46;15.10;99.90
24338;DHT22;12457;50.832;4.346;2023-04-08T14:05:12;15.40;99.90
24338;DHT22;12457;50.832;4.346;2023-04-08T14:07:38;15.50;99.90
24338;DHT22;12457;50.832;4.346;2023-04-08T14:10:04;16.00;99.90
24338;DHT22;12457;50.832;4.346;2023-04-08T14:12:30;16.20;99.90
24338;DHT22;12457;50.832;4.346;2023-04-08T14:14:55;16.10;99.90
24338;DHT22;12457;50.832;4.346;2023-04-08T14:17:22;16.00;99.90
24338;DHT22;12457;50.832;4.346;2023-04-08T14:19:48;16.00;99.90
24338;DHT22;12457;50.832;4.346;2023-04-08T14:22:13;16.10;99.90
24338;DHT22;12457;50.832;4.346;2023-04-08T14:24:40;16.10;99.90
24338;DHT22;12457;50.832;4.346;2023-04-08T14:27:07;15.90;99.90
24338;DHT22;12457;50.832;4.346;2023-04-08T14:29:32;15.60;99.90
24338;DHT22;12457;50.832;4.346;2023-04-08T14:31:58;15.60;99.90
24338;DHT22;12457;50.832;4.346;2023-04-08T14:34:24;15.70;99.90
24338;DHT22;12457;50.832;4.346;2023-04-08T14:36:50;15.70;99.90
24338;DHT22;12457;50.832;4.346;2023-04-08T14:39:17;15.60;99.90
24338;DHT22;12457;50.832;4.346;2023-04-08T14:41:43;15.40;99.90
24338;DHT22;12457;50.832;4.346;2023-04-08T14:44:11;15.60;99.90
24338;DHT22;12457;50.832;4.346;2023-04-08T14:46:42;15.30;99.90
24338;DHT22;12457;50.832;4.346;2023-04-08T14:49:07;15.30;99.90
24338;DHT22;12457;50.832;4.346;2023-04-08T14:51:33;15.40;99.90
24338;DHT22;12457;50.832;4.346;2023-04-08T14:54:02;15.50;99.90
24338;DHT22;12457;50.832;4.346;2023-04-08T14:56:28;15.40;99.90
24338;DHT22;12457;50.832;4.346;2023-04-08T14:58:54;15.40;99.90
24338;DHT22;12457;50.832;4.346;2023-04-08T15:01:20;15.40;99.90
24338;DHT22;12457;50.832;4.346;2023-04-08T15:03:45;15.10;99.90
24338;DHT22;12457;50.832;4.346;2023-04-08T15:06:11;15.00;99.90
24338;DHT22;12457;50.832;4.346;2023-04-08T15:08:41;14.90;99.90
24338;DHT22;12457;50.832;4.346;2023-04-08T15:11:07;15.10;99.90
24338;DHT22;12457;50.832;4.346;2023-04-08T15:13:33;14.80;99.90
24338;DHT22;12457;50.832;4.346;2023-04-08T15:16:00;14.60;99.90
24338;DHT22;12457;50.832;4.346;2023-04-08T15:18:26;14.60;99.90
24338;DHT22;12457;50.832;4.346;2023-04-08T15:20:52;14.40;99.90
24338;DHT22;12457;50.832;4.346;2023-04-08T15:23:17;14.40;99.90
24338;DHT22;12457;50.832;4.346;2023-04-08T15:25:43;14.50;99.90
24338;DHT22;12457;50.832;4.346;2023-04-08T15:28:10;14.40;99.90
24338;DHT22;12457;50.832;4.346;2023-04-08T15:30:37;14.50;99.90
24338;DHT22;12457;50.832;4.346;2023-04-08T15:33:03;14.60;99.90
24338;DHT22;12457;50.832;4.346;2023-04-08T15:35:29;14.70;99.90
24338;DHT22;12457;50.832;4.346;2023-04-08T15:37:55;14.80;99.90
24338;DHT22;12457;50.832;4.346;2023-04-08T15:40:20;14.70;99.90
24338;DHT22;12457;50.832;4.346;2023-04-08T15:42:46;14.70;99.90
24338;DHT22;12457;50.832;4.346;2023-04-08T15:45:12;14.60;99.90
24338;DHT22;12457;50.832;4.346;2023-04-08T15:47:39;14.40;99.90
24338;DHT22;12457;50.832;4.346;2023-04-08T15:50:07;14.40;99.90
24338;DHT22;12457;50.832;4.346;2023-04-08T15:52:34;14.40;99.90
24338;DHT22;12457;50.832;4.346;2023-04-08T15:54:59;14.30;99.90
24338;DHT22;12457;50.832;4.346;2023-04-08T15:57:27;14.30;99.90
24338;DHT22;12457;50.832;4.346;2023-04-08T15:59:53;14.20;99.90
24338;DHT22;12457;50.832;4.346;2023-04-08T16:02:18;14.20;99.90
24338;DHT22;12457;50.832;4.346;2023-04-08T16:04:44;14.40;99.90